Benton, KY

11:15 PM CST on January 30, 2015 (GMT -0600)
Jason's House | Change Station
CLOSE
Current Station
Personal Weather Station
Location: Benton, KY
Elevation: 456 ft
Nearby Weather Stations

Elev 456 ft 36.85 °N, 88.35 °W | Updated 7 seconds ago

Partly Cloudy
Partly Cloudy
27.4 °F
Feels Like 27 °F
N
0.0
Wind Variable Wind from NE
Gusts 0.0 mph

Today
High -- | Low -- °F
--% Chance of Precip.
Yesterday
High -- | Low -- °F
Precip. -- in
6:57 AM 5:16 PM
Waxing Gibbous, 87% visible
Pressure 30.43 in
Visibility 10.0 miles
Clouds Few 1400 ft
Windchill 27 °F
Dew Point 22 °F
Humidity 79%
Rainfall 0.00 in
Snow Depth Not available.
UV 0 out of 12
Pollen .30 out of 12
Air Quality Not available.
Flu Activity Not available.
METAR KCEY 310455Z AUTO 09003KT 10SM FEW014 M01/M07 A3043 RMK AO1

More Conditions Fewer Conditions

Pressure 30.43 in
Visibility 10.0 miles
Clouds Few 1400 ft
Windchill 27 °F
Dew Point 22 °F
Humidity 79%
Rainfall 0.00 in
Snow Depth Not available.
UV 0 out of 12
Pollen .30 out of 12
Air Quality Not available.
Flu Activity Not available.
METAR KCEY 310455Z AUTO 09003KT 10SM FEW014 M01/M07 A3043 RMK AO1

More Conditions Fewer Conditions

10-Day Weather Forecast

Almanac

Astronomy

Jan. 30, 2015 Rise Set
Actual Time
Civil Twilight
Nautical Twilight
Astronomical Twilight
Moon
Length of Visible Light
Length of Day
Tomorrow will be .
, % of the Moon is Illuminated

Today's Extremes

State Highs State Lows

Community

WunderPhotos

Upload Photos

1,792,005 photos uploaded!

WunderBlogs® & News

Nearby

Air Quality

  Air Quality AQ Index Pollutant
Not available.

Snow Depth

Station Depth Elevation

Earthquake Activity

City Distance Mag. Time & Date
Minimum magnitude displayed is 2.5.

Coastal Water Temperatures

Place Temperature

Nearby Weather Stations